sensor_id;sensor_type;location;lat;lon;timestamp;temperature;humidity
46766;DHT22;32527;51.986;5.842;2022-08-03T00:02:34;19.40;99.90
46766;DHT22;32527;51.986;5.842;2022-08-03T00:05:51;19.40;99.90
46766;DHT22;32527;51.986;5.842;2022-08-03T00:08:41;19.30;99.90
46766;DHT22;32527;51.986;5.842;2022-08-03T00:11:39;19.30;99.90
46766;DHT22;32527;51.986;5.842;2022-08-03T00:14:44;19.20;99.90
46766;DHT22;32527;51.986;5.842;2022-08-03T00:17:41;19.20;99.90
46766;DHT22;32527;51.986;5.842;2022-08-03T00:22:59;19.10;99.90
46766;DHT22;32527;51.986;5.842;2022-08-03T00:28:58;19.10;99.90
46766;DHT22;32527;51.986;5.842;2022-08-03T00:32:03;19.10;99.90
46766;DHT22;32527;51.986;5.842;2022-08-03T00:34:44;19.00;99.90
46766;DHT22;32527;51.986;5.842;2022-08-03T00:38:05;19.00;99.90
46766;DHT22;32527;51.986;5.842;2022-08-03T00:41:21;18.90;99.90
46766;DHT22;32527;51.986;5.842;2022-08-03T00:44:03;18.90;99.90
46766;DHT22;32527;51.986;5.842;2022-08-03T00:47:29;18.90;99.90
46766;DHT22;32527;51.986;5.842;2022-08-03T00:50:24;18.90;99.90
46766;DHT22;32527;51.986;5.842;2022-08-03T00:53:32;18.90;99.90
46766;DHT22;32527;51.986;5.842;2022-08-03T00:56:37;18.80;99.90
46766;DHT22;32527;51.986;5.842;2022-08-03T01:03:05;18.80;99.90
46766;DHT22;32527;51.986;5.842;2022-08-03T01:06:45;18.80;99.90
46766;DHT22;32527;51.986;5.842;2022-08-03T01:32:14;18.60;99.90
46766;DHT22;32527;51.986;5.842;2022-08-03T01:34:46;19.00;99.90
46766;DHT22;32527;51.986;5.842;2022-08-03T01:37:15;17.90;99.90
46766;DHT22;32527;51.986;5.842;2022-08-03T01:39:46;18.30;99.90
46766;DHT22;32527;51.986;5.842;2022-08-03T01:42:14;18.40;99.90
46766;DHT22;32527;51.986;5.842;2022-08-03T01:44:41;18.50;99.90
46766;DHT22;32527;51.986;5.842;2022-08-03T01:47:10;18.70;99.90
46766;DHT22;32527;51.986;5.842;2022-08-03T01:49:39;18.20;99.90
46766;DHT22;32527;51.986;5.842;2022-08-03T01:52:08;18.30;99.90
46766;DHT22;32527;51.986;5.842;2022-08-03T01:54:42;18.30;99.90
46766;DHT22;32527;51.986;5.842;2022-08-03T01:57:08;18.50;99.90
46766;DHT22;32527;51.986;5.842;2022-08-03T01:59:35;18.30;99.90
46766;DHT22;32527;51.986;5.842;2022-08-03T02:02:05;18.30;99.90
46766;DHT22;32527;51.986;5.842;2022-08-03T02:04:32;18.80;99.90
46766;DHT22;32527;51.986;5.842;2022-08-03T02:07:00;18.60;99.90
46766;DHT22;32527;51.986;5.842;2022-08-03T02:09:27;18.40;99.90
46766;DHT22;32527;51.986;5.842;2022-08-03T02:11:55;18.20;99.90
46766;DHT22;32527;51.986;5.842;2022-08-03T02:14:22;18.20;99.90
46766;DHT22;32527;51.986;5.842;2022-08-03T02:16:49;18.10;99.90
46766;DHT22;32527;51.986;5.842;2022-08-03T02:19:15;18.70;99.90
46766;DHT22;32527;51.986;5.842;2022-08-03T02:21:44;18.40;99.90
46766;DHT22;32527;51.986;5.842;2022-08-03T02:24:10;18.20;99.90
46766;DHT22;32527;51.986;5.842;2022-08-03T02:26:37;18.20;99.90
46766;DHT22;32527;51.986;5.842;2022-08-03T02:29:17;18.10;99.90
46766;DHT22;32527;51.986;5.842;2022-08-03T02:31:45;18.20;99.90
46766;DHT22;32527;51.986;5.842;2022-08-03T02:34:14;18.00;99.90
46766;DHT22;32527;51.986;5.842;2022-08-03T02:36:43;18.10;99.90
46766;DHT22;32527;51.986;5.842;2022-08-03T02:39:12;18.00;99.90
46766;DHT22;32527;51.986;5.842;2022-08-03T02:41:50;18.00;99.90
46766;DHT22;32527;51.986;5.842;2022-08-03T02:44:21;18.20;99.90
46766;DHT22;32527;51.986;5.842;2022-08-03T02:46:53;18.20;99.90
46766;DHT22;32527;51.986;5.842;2022-08-03T02:49:19;18.10;99.90
46766;DHT22;32527;51.986;5.842;2022-08-03T02:51:46;17.90;99.90
46766;DHT22;32527;51.986;5.842;2022-08-03T02:54:15;18.00;99.90
46766;DHT22;32527;51.986;5.842;2022-08-03T02:56:43;18.60;99.90
46766;DHT22;32527;51.986;5.842;2022-08-03T02:59:11;18.20;99.90
46766;DHT22;32527;51.986;5.842;2022-08-03T03:04:04;18.00;99.90
46766;DHT22;32527;51.986;5.842;2022-08-03T03:06:31;17.90;99.90
46766;DHT22;32527;51.986;5.842;2022-08-03T03:08:58;17.80;99.90
46766;DHT22;32527;51.986;5.842;2022-08-03T03:11:25;17.90;99.90
46766;DHT22;32527;51.986;5.842;2022-08-03T03:13:51;18.00;99.90
46766;DHT22;32527;51.986;5.842;2022-08-03T03:16:18;18.00;99.90
46766;DHT22;32527;51.986;5.842;2022-08-03T03:18:46;18.20;99.90
46766;DHT22;32527;51.986;5.842;2022-08-03T03:21:15;18.10;99.90
46766;DHT22;32527;51.986;5.842;2022-08-03T03:23:42;18.20;99.90
46766;DHT22;32527;51.986;5.842;2022-08-03T03:28:34;17.80;99.90
46766;DHT22;32527;51.986;5.842;2022-08-03T03:31:04;17.60;99.90
46766;DHT22;32527;51.986;5.842;2022-08-03T03:33:32;18.30;99.90
46766;DHT22;32527;51.986;5.842;2022-08-03T03:35:58;18.10;99.90
46766;DHT22;32527;51.986;5.842;2022-08-03T03:38:24;17.70;99.90
46766;DHT22;32527;51.986;5.842;2022-08-03T03:40:50;17.60;99.90
46766;DHT22;32527;51.986;5.842;2022-08-03T03:45:44;18.00;99.90
46766;DHT22;32527;51.986;5.842;2022-08-03T03:48:11;17.70;99.90
46766;DHT22;32527;51.986;5.842;2022-08-03T03:50:37;18.20;99.90
46766;DHT22;32527;51.986;5.842;2022-08-03T03:53:11;17.70;99.90
46766;DHT22;32527;51.986;5.842;2022-08-03T03:55:37;18.30;99.90
46766;DHT22;32527;51.986;5.842;2022-08-03T03:58:04;18.20;99.90
46766;DHT22;32527;51.986;5.842;2022-08-03T04:00:30;17.70;99.90
46766;DHT22;32527;51.986;5.842;2022-08-03T04:02:56;18.30;99.90
46766;DHT22;32527;51.986;5.842;2022-08-03T04:05:22;18.10;99.90
46766;DHT22;32527;51.986;5.842;2022-08-03T04:08:09;17.50;99.90
46766;DHT22;32527;51.986;5.842;2022-08-03T04:16:18;18.00;99.90
46766;DHT22;32527;51.986;5.842;2022-08-03T04:18:48;17.60;99.90
46766;DHT22;32527;51.986;5.842;2022-08-03T04:21:16;17.70;99.90
46766;DHT22;32527;51.986;5.842;2022-08-03T04:23:45;17.80;99.90
46766;DHT22;32527;51.986;5.842;2022-08-03T04:26:14;17.50;99.90
46766;DHT22;32527;51.986;5.842;2022-08-03T04:28:42;17.60;99.90
46766;DHT22;32527;51.986;5.842;2022-08-03T04:33:37;17.80;99.90
46766;DHT22;32527;51.986;5.842;2022-08-03T04:36:06;17.70;99.90
46766;DHT22;32527;51.986;5.842;2022-08-03T04:38:37;17.80;99.90
46766;DHT22;32527;51.986;5.842;2022-08-03T04:41:06;17.70;99.90
46766;DHT22;32527;51.986;5.842;2022-08-03T04:43:33;18.30;99.90
46766;DHT22;32527;51.986;5.842;2022-08-03T04:46:00;17.80;99.90
46766;DHT22;32527;51.986;5.842;2022-08-03T04:48:26;17.70;99.90
46766;DHT22;32527;51.986;5.842;2022-08-03T04:50:52;18.40;99.90
46766;DHT22;32527;51.986;5.842;2022-08-03T04:53:19;18.10;99.90
46766;DHT22;32527;51.986;5.842;2022-08-03T04:55:45;18.00;99.90
46766;DHT22;32527;51.986;5.842;2022-08-03T04:58:11;18.50;99.90
46766;DHT22;32527;51.986;5.842;2022-08-03T05:00:37;18.50;99.90
46766;DHT22;32527;51.986;5.842;2022-08-03T05:03:02;18.50;99.90
46766;DHT22;32527;51.986;5.842;2022-08-03T05:05:28;18.20;99.90
46766;DHT22;32527;51.986;5.842;2022-08-03T05:10:20;18.80;99.90
46766;DHT22;32527;51.986;5.842;2022-08-03T05:12:47;18.30;99.90
46766;DHT22;32527;51.986;5.842;2022-08-03T05:15:13;18.10;99.90
46766;DHT22;32527;51.986;5.842;2022-08-03T05:17:39;18.30;99.90
46766;DHT22;32527;51.986;5.842;2022-08-03T05:20:05;18.60;99.90
46766;DHT22;32527;51.986;5.842;2022-08-03T05:22:30;18.40;99.90
46766;DHT22;32527;51.986;5.842;2022-08-03T05:27:22;18.50;99.90
46766;DHT22;32527;51.986;5.842;2022-08-03T05:29:49;19.10;99.90
46766;DHT22;32527;51.986;5.842;2022-08-03T05:32:16;18.40;99.90
46766;DHT22;32527;51.986;5.842;2022-08-03T05:34:42;18.80;99.90
46766;DHT22;32527;51.986;5.842;2022-08-03T05:37:08;19.30;99.90
46766;DHT22;32527;51.986;5.842;2022-08-03T05:39:33;18.90;99.90
46766;DHT22;32527;51.986;5.842;2022-08-03T05:42:01;19.30;99.90
46766;DHT22;32527;51.986;5.842;2022-08-03T05:44:26;19.30;99.90
46766;DHT22;32527;51.986;5.842;2022-08-03T05:46:52;20.80;99.90
46766;DHT22;32527;51.986;5.842;2022-08-03T05:49:18;20.70;99.90
46766;DHT22;32527;51.986;5.842;2022-08-03T05:51:44;20.80;99.90
46766;DHT22;32527;51.986;5.842;2022-08-03T05:54:10;20.90;99.90
46766;DHT22;32527;51.986;5.842;2022-08-03T05:56:36;21.10;99.90
46766;DHT22;32527;51.986;5.842;2022-08-03T05:59:01;21.20;99.90
46766;DHT22;32527;51.986;5.842;2022-08-03T06:01:28;20.90;99.90
46766;DHT22;32527;51.986;5.842;2022-08-03T06:03:54;21.20;99.90
46766;DHT22;32527;51.986;5.842;2022-08-03T06:06:19;21.30;99.90
46766;DHT22;32527;51.986;5.842;2022-08-03T06:08:45;21.40;99.90
46766;DHT22;32527;51.986;5.842;2022-08-03T06:11:13;21.60;99.90
46766;DHT22;32527;51.986;5.842;2022-08-03T06:13:38;22.20;99.90
46766;DHT22;32527;51.986;5.842;2022-08-03T06:16:04;21.80;99.90
46766;DHT22;32527;51.986;5.842;2022-08-03T06:18:30;21.70;99.90
46766;DHT22;32527;51.986;5.842;2022-08-03T06:20:55;21.60;99.90
46766;DHT22;32527;51.986;5.842;2022-08-03T06:23:21;21.60;99.90
46766;DHT22;32527;51.986;5.842;2022-08-03T06:25:47;21.60;99.90
46766;DHT22;32527;51.986;5.842;2022-08-03T06:28:13;21.70;99.90
46766;DHT22;32527;51.986;5.842;2022-08-03T06:30:39;21.90;99.90
46766;DHT22;32527;51.986;5.842;2022-08-03T06:33:05;22.10;99.90
46766;DHT22;32527;51.986;5.842;2022-08-03T06:35:31;22.40;99.90
46766;DHT22;32527;51.986;5.842;2022-08-03T06:37:57;22.80;99.90
46766;DHT22;32527;51.986;5.842;2022-08-03T06:40:23;23.40;99.90
46766;DHT22;32527;51.986;5.842;2022-08-03T06:42:58;23.90;99.90
46766;DHT22;32527;51.986;5.842;2022-08-03T06:45:24;23.90;99.90
46766;DHT22;32527;51.986;5.842;2022-08-03T06:48:04;24.30;99.90
46766;DHT22;32527;51.986;5.842;2022-08-03T06:50:32;24.20;99.90
46766;DHT22;32527;51.986;5.842;2022-08-03T06:52:58;24.10;99.90
46766;DHT22;32527;51.986;5.842;2022-08-03T06:55:24;24.00;99.90
46766;DHT22;32527;51.986;5.842;2022-08-03T06:57:49;24.10;99.90
46766;DHT22;32527;51.986;5.842;2022-08-03T07:00:15;24.50;99.90
46766;DHT22;32527;51.986;5.842;2022-08-03T07:02:41;24.80;99.90
46766;DHT22;32527;51.986;5.842;2022-08-03T07:05:08;24.90;99.90
46766;DHT22;32527;51.986;5.842;2022-08-03T07:07:34;24.90;99.90
46766;DHT22;32527;51.986;5.842;2022-08-03T07:10:00;25.20;99.90
46766;DHT22;32527;51.986;5.842;2022-08-03T07:12:27;25.10;99.90
46766;DHT22;32527;51.986;5.842;2022-08-03T07:14:53;24.90;99.90
46766;DHT22;32527;51.986;5.842;2022-08-03T07:17:18;25.30;99.90
46766;DHT22;32527;51.986;5.842;2022-08-03T07:19:44;25.30;99.90
46766;DHT22;32527;51.986;5.842;2022-08-03T07:22:09;25.60;99.90
46766;DHT22;32527;51.986;5.842;2022-08-03T07:24:36;25.90;99.90
46766;DHT22;32527;51.986;5.842;2022-08-03T07:27:01;25.80;99.90
46766;DHT22;32527;51.986;5.842;2022-08-03T07:29:27;26.40;99.90
46766;DHT22;32527;51.986;5.842;2022-08-03T07:31:53;26.30;99.90
46766;DHT22;32527;51.986;5.842;2022-08-03T07:34:18;26.30;99.90
46766;DHT22;32527;51.986;5.842;2022-08-03T07:36:44;26.40;99.90
46766;DHT22;32527;51.986;5.842;2022-08-03T07:41:35;26.60;99.90
46766;DHT22;32527;51.986;5.842;2022-08-03T07:44:02;26.60;99.90
46766;DHT22;32527;51.986;5.842;2022-08-03T07:46:27;26.50;99.90
46766;DHT22;32527;51.986;5.842;2022-08-03T07:48:53;26.60;99.90
46766;DHT22;32527;51.986;5.842;2022-08-03T07:51:19;26.70;99.90
46766;DHT22;32527;51.986;5.842;2022-08-03T07:53:44;26.10;99.90
46766;DHT22;32527;51.986;5.842;2022-08-03T07:56:10;26.20;99.90
46766;DHT22;32527;51.986;5.842;2022-08-03T07:58:36;26.30;99.90
46766;DHT22;32527;51.986;5.842;2022-08-03T08:01:01;26.80;99.90
46766;DHT22;32527;51.986;5.842;2022-08-03T08:03:27;27.10;99.20
46766;DHT22;32527;51.986;5.842;2022-08-03T08:05:53;27.30;98.40
46766;DHT22;32527;51.986;5.842;2022-08-03T08:08:19;27.30;98.60
46766;DHT22;32527;51.986;5.842;2022-08-03T08:10:45;27.20;99.30
46766;DHT22;32527;51.986;5.842;2022-08-03T08:13:11;27.50;98.90
46766;DHT22;32527;51.986;5.842;2022-08-03T08:15:40;27.30;98.50
46766;DHT22;32527;51.986;5.842;2022-08-03T08:18:05;27.60;96.90
46766;DHT22;32527;51.986;5.842;2022-08-03T08:20:33;28.10;96.20
46766;DHT22;32527;51.986;5.842;2022-08-03T08:23:01;28.20;95.90
46766;DHT22;32527;51.986;5.842;2022-08-03T08:25:28;28.10;95.20
46766;DHT22;32527;51.986;5.842;2022-08-03T08:27:54;28.30;95.30
46766;DHT22;32527;51.986;5.842;2022-08-03T08:30:22;28.80;93.60
46766;DHT22;32527;51.986;5.842;2022-08-03T08:32:48;28.80;93.10
46766;DHT22;32527;51.986;5.842;2022-08-03T08:35:15;28.60;93.90
46766;DHT22;32527;51.986;5.842;2022-08-03T08:37:41;28.80;93.40
46766;DHT22;32527;51.986;5.842;2022-08-03T08:40:08;28.90;93.20
46766;DHT22;32527;51.986;5.842;2022-08-03T08:42:36;29.40;91.10
46766;DHT22;32527;51.986;5.842;2022-08-03T08:45:04;29.70;90.50
46766;DHT22;32527;51.986;5.842;2022-08-03T08:47:32;29.60;86.10
46766;DHT22;32527;51.986;5.842;2022-08-03T08:49:58;31.20;88.80
46766;DHT22;32527;51.986;5.842;2022-08-03T08:52:26;29.70;86.70
46766;DHT22;32527;51.986;5.842;2022-08-03T08:55:01;29.90;85.80
46766;DHT22;32527;51.986;5.842;2022-08-03T08:57:46;29.90;82.30
46766;DHT22;32527;51.986;5.842;2022-08-03T09:00:13;30.10;82.90
46766;DHT22;32527;51.986;5.842;2022-08-03T09:02:43;30.10;83.20
46766;DHT22;32527;51.986;5.842;2022-08-03T09:05:13;30.30;81.80
46766;DHT22;32527;51.986;5.842;2022-08-03T09:07:39;31.00;80.90
46766;DHT22;32527;51.986;5.842;2022-08-03T09:10:06;30.90;77.70
46766;DHT22;32527;51.986;5.842;2022-08-03T09:12:41;30.60;76.70
46766;DHT22;32527;51.986;5.842;2022-08-03T09:15:27;30.70;78.10
46766;DHT22;32527;51.986;5.842;2022-08-03T09:17:55;30.80;78.10
46766;DHT22;32527;51.986;5.842;2022-08-03T09:20:22;30.70;77.50
46766;DHT22;32527;51.986;5.842;2022-08-03T09:25:42;31.00;75.00
46766;DHT22;32527;51.986;5.842;2022-08-03T09:28:10;31.30;75.00
46766;DHT22;32527;51.986;5.842;2022-08-03T09:30:37;31.20;73.80
46766;DHT22;32527;51.986;5.842;2022-08-03T09:33:08;31.30;74.80
46766;DHT22;32527;51.986;5.842;2022-08-03T09:35:45;31.60;73.10
46766;DHT22;32527;51.986;5.842;2022-08-03T09:40:42;31.20;73.10
46766;DHT22;32527;51.986;5.842;2022-08-03T09:43:09;31.50;71.50
46766;DHT22;32527;51.986;5.842;2022-08-03T09:45:39;31.70;69.90
46766;DHT22;32527;51.986;5.842;2022-08-03T09:48:27;31.70;69.30
46766;DHT22;32527;51.986;5.842;2022-08-03T09:51:05;31.80;69.30
46766;DHT22;32527;51.986;5.842;2022-08-03T09:53:44;31.80;67.90
46766;DHT22;32527;51.986;5.842;2022-08-03T09:56:14;31.90;68.20
46766;DHT22;32527;51.986;5.842;2022-08-03T09:58:46;32.40;67.70
46766;DHT22;32527;51.986;5.842;2022-08-03T10:01:20;32.10;66.30
46766;DHT22;32527;51.986;5.842;2022-08-03T10:09:13;32.00;66.60
46766;DHT22;32527;51.986;5.842;2022-08-03T10:14:10;31.90;66.10
46766;DHT22;32527;51.986;5.842;2022-08-03T10:16:40;32.10;67.30
46766;DHT22;32527;51.986;5.842;2022-08-03T10:19:21;32.10;66.90
46766;DHT22;32527;51.986;5.842;2022-08-03T10:21:56;32.60;65.30
46766;DHT22;32527;51.986;5.842;2022-08-03T10:24:39;32.60;63.80
46766;DHT22;32527;51.986;5.842;2022-08-03T10:27:22;32.40;64.20
46766;DHT22;32527;51.986;5.842;2022-08-03T10:29:55;32.50;63.50
46766;DHT22;32527;51.986;5.842;2022-08-03T10:32:30;32.80;63.20
46766;DHT22;32527;51.986;5.842;2022-08-03T10:35:11;32.90;62.60
46766;DHT22;32527;51.986;5.842;2022-08-03T10:37:43;33.00;62.40
46766;DHT22;32527;51.986;5.842;2022-08-03T10:40:14;33.20;61.70
46766;DHT22;32527;51.986;5.842;2022-08-03T10:42:46;33.50;62.30
46766;DHT22;32527;51.986;5.842;2022-08-03T10:45:51;33.80;60.50
46766;DHT22;32527;51.986;5.842;2022-08-03T10:53:50;34.10;57.90
46766;DHT22;32527;51.986;5.842;2022-08-03T10:56:43;34.10;57.90
46766;DHT22;32527;51.986;5.842;2022-08-03T11:02:17;34.30;56.10
46766;DHT22;32527;51.986;5.842;2022-08-03T11:07:23;34.80;55.20
46766;DHT22;32527;51.986;5.842;2022-08-03T11:10:31;34.50;54.40
46766;DHT22;32527;51.986;5.842;2022-08-03T11:13:13;34.70;54.70
46766;DHT22;32527;51.986;5.842;2022-08-03T11:15:53;35.00;54.00
46766;DHT22;32527;51.986;5.842;2022-08-03T11:18:30;35.40;53.70
46766;DHT22;32527;51.986;5.842;2022-08-03T11:21:04;35.60;52.80
46766;DHT22;32527;51.986;5.842;2022-08-03T11:26:35;35.90;51.30
46766;DHT22;32527;51.986;5.842;2022-08-03T11:29:28;36.20;50.90
46766;DHT22;32527;51.986;5.842;2022-08-03T11:31:56;36.40;49.60
46766;DHT22;32527;51.986;5.842;2022-08-03T11:34:30;36.10;49.70
46766;DHT22;32527;51.986;5.842;2022-08-03T11:37:17;36.30;49.70
46766;DHT22;32527;51.986;5.842;2022-08-03T11:39:51;36.40;48.90
46766;DHT22;32527;51.986;5.842;2022-08-03T11:45:13;36.60;46.60
46766;DHT22;32527;51.986;5.842;2022-08-03T11:47:51;36.70;47.10
46766;DHT22;32527;51.986;5.842;2022-08-03T11:50:21;36.30;47.40
46766;DHT22;32527;51.986;5.842;2022-08-03T11:53:11;35.20;48.60
46766;DHT22;32527;51.986;5.842;2022-08-03T12:06:19;31.10;55.30
46766;DHT22;32527;51.986;5.842;2022-08-03T12:08:47;30.70;56.10
46766;DHT22;32527;51.986;5.842;2022-08-03T12:13:51;30.60;56.90
46766;DHT22;32527;51.986;5.842;2022-08-03T12:19:05;30.60;56.50
46766;DHT22;32527;51.986;5.842;2022-08-03T12:21:52;30.60;57.00
46766;DHT22;32527;51.986;5.842;2022-08-03T12:24:23;30.70;56.80
46766;DHT22;32527;51.986;5.842;2022-08-03T12:31:58;30.50;56.20
46766;DHT22;32527;51.986;5.842;2022-08-03T12:34:50;30.50;56.30
46766;DHT22;32527;51.986;5.842;2022-08-03T12:37:35;30.60;56.70
46766;DHT22;32527;51.986;5.842;2022-08-03T12:40:02;30.60;56.00
46766;DHT22;32527;51.986;5.842;2022-08-03T12:42:35;30.60;56.40
46766;DHT22;32527;51.986;5.842;2022-08-03T12:45:27;30.70;56.60
46766;DHT22;32527;51.986;5.842;2022-08-03T12:48:02;30.70;55.90
46766;DHT22;32527;51.986;5.842;2022-08-03T12:53:09;30.70;55.80
46766;DHT22;32527;51.986;5.842;2022-08-03T12:55:37;30.70;55.80
46766;DHT22;32527;51.986;5.842;2022-08-03T12:58:05;30.80;56.30
46766;DHT22;32527;51.986;5.842;2022-08-03T13:00:36;30.90;56.90
46766;DHT22;32527;51.986;5.842;2022-08-03T13:03:09;30.70;55.60
46766;DHT22;32527;51.986;5.842;2022-08-03T13:05:43;30.60;56.20
46766;DHT22;32527;51.986;5.842;2022-08-03T13:08:24;30.60;56.90
46766;DHT22;32527;51.986;5.842;2022-08-03T13:13:44;30.80;56.50
46766;DHT22;32527;51.986;5.842;2022-08-03T13:21:18;30.60;58.00
46766;DHT22;32527;51.986;5.842;2022-08-03T13:24:05;30.50;58.50
46766;DHT22;32527;51.986;5.842;2022-08-03T13:26:38;30.40;58.90
46766;DHT22;32527;51.986;5.842;2022-08-03T13:32:01;30.60;59.50
46766;DHT22;32527;51.986;5.842;2022-08-03T13:37:14;30.50;60.20
46766;DHT22;32527;51.986;5.842;2022-08-03T13:39:43;30.50;60.00
46766;DHT22;32527;51.986;5.842;2022-08-03T13:42:26;30.40;61.10
46766;DHT22;32527;51.986;5.842;2022-08-03T13:45:14;30.40;61.50
46766;DHT22;32527;51.986;5.842;2022-08-03T13:51:29;30.30;61.10
46766;DHT22;32527;51.986;5.842;2022-08-03T13:54:02;30.30;61.00
46766;DHT22;32527;51.986;5.842;2022-08-03T13:56:31;30.20;62.50
46766;DHT22;32527;51.986;5.842;2022-08-03T13:59:06;30.30;61.90
46766;DHT22;32527;51.986;5.842;2022-08-03T14:01:49;30.30;61.90
46766;DHT22;32527;51.986;5.842;2022-08-03T14:04:31;30.30;62.10
46766;DHT22;32527;51.986;5.842;2022-08-03T14:07:29;30.20;62.40
46766;DHT22;32527;51.986;5.842;2022-08-03T14:15:16;30.30;63.10
46766;DHT22;32527;51.986;5.842;2022-08-03T14:20:38;30.30;62.90
46766;DHT22;32527;51.986;5.842;2022-08-03T14:38:33;29.80;64.80
46766;DHT22;32527;51.986;5.842;2022-08-03T14:41:03;29.70;65.10
46766;DHT22;32527;51.986;5.842;2022-08-03T14:43:41;29.70;65.80
46766;DHT22;32527;51.986;5.842;2022-08-03T14:46:18;29.70;65.30
46766;DHT22;32527;51.986;5.842;2022-08-03T14:51:23;29.60;65.50
46766;DHT22;32527;51.986;5.842;2022-08-03T14:58:49;29.40;66.70
46766;DHT22;32527;51.986;5.842;2022-08-03T15:01:23;29.30;67.60
46766;DHT22;32527;51.986;5.842;2022-08-03T15:04:36;29.40;66.90
46766;DHT22;32527;51.986;5.842;2022-08-03T15:09:34;29.50;66.80
46766;DHT22;32527;51.986;5.842;2022-08-03T15:12:15;29.40;68.00
46766;DHT22;32527;51.986;5.842;2022-08-03T15:22:29;29.30;67.60
46766;DHT22;32527;51.986;5.842;2022-08-03T15:25:05;29.30;67.90
46766;DHT22;32527;51.986;5.842;2022-08-03T15:27:56;29.30;67.40
46766;DHT22;32527;51.986;5.842;2022-08-03T15:40:23;29.30;67.30
46766;DHT22;32527;51.986;5.842;2022-08-03T15:42:52;29.40;68.90
46766;DHT22;32527;51.986;5.842;2022-08-03T15:50:17;29.00;67.40
46766;DHT22;32527;51.986;5.842;2022-08-03T15:52:43;29.10;67.40
46766;DHT22;32527;51.986;5.842;2022-08-03T15:55:09;29.10;68.10
46766;DHT22;32527;51.986;5.842;2022-08-03T16:00:06;29.20;67.40
46766;DHT22;32527;51.986;5.842;2022-08-03T16:02:32;29.50;68.30
46766;DHT22;32527;51.986;5.842;2022-08-03T16:04:58;29.30;68.30
46766;DHT22;32527;51.986;5.842;2022-08-03T16:07:24;29.10;68.20
46766;DHT22;32527;51.986;5.842;2022-08-03T16:10:09;29.20;68.60
46766;DHT22;32527;51.986;5.842;2022-08-03T16:12:35;29.40;68.20
46766;DHT22;32527;51.986;5.842;2022-08-03T16:15:02;29.20;68.40
46766;DHT22;32527;51.986;5.842;2022-08-03T16:17:28;29.10;69.60
46766;DHT22;32527;51.986;5.842;2022-08-03T16:22:20;29.10;70.20
46766;DHT22;32527;51.986;5.842;2022-08-03T16:24:46;28.90;69.20
46766;DHT22;32527;51.986;5.842;2022-08-03T16:34:34;29.20;71.90
46766;DHT22;32527;51.986;5.842;2022-08-03T16:36:59;29.10;70.90
46766;DHT22;32527;51.986;5.842;2022-08-03T16:39:25;28.80;71.00
46766;DHT22;32527;51.986;5.842;2022-08-03T16:49:12;28.70;71.30
46766;DHT22;32527;51.986;5.842;2022-08-03T16:51:38;28.70;71.90
46766;DHT22;32527;51.986;5.842;2022-08-03T16:54:04;28.60;72.20
46766;DHT22;32527;51.986;5.842;2022-08-03T16:56:30;28.60;72.80
46766;DHT22;32527;51.986;5.842;2022-08-03T16:58:56;28.50;74.30
46766;DHT22;32527;51.986;5.842;2022-08-03T17:01:21;28.70;74.20
46766;DHT22;32527;51.986;5.842;2022-08-03T17:03:49;28.60;74.00
46766;DHT22;32527;51.986;5.842;2022-08-03T17:06:15;28.40;74.30
46766;DHT22;32527;51.986;5.842;2022-08-03T17:08:41;28.40;74.50
46766;DHT22;32527;51.986;5.842;2022-08-03T17:13:33;28.30;75.20
46766;DHT22;32527;51.986;5.842;2022-08-03T17:16:02;28.80;75.40
46766;DHT22;32527;51.986;5.842;2022-08-03T17:18:33;28.90;75.30
46766;DHT22;32527;51.986;5.842;2022-08-03T17:21:04;28.70;75.60
46766;DHT22;32527;51.986;5.842;2022-08-03T17:23:41;29.10;74.60
46766;DHT22;32527;51.986;5.842;2022-08-03T17:26:12;29.20;75.70
46766;DHT22;32527;51.986;5.842;2022-08-03T17:28:44;28.90;75.00
46766;DHT22;32527;51.986;5.842;2022-08-03T17:31:10;29.00;75.60
46766;DHT22;32527;51.986;5.842;2022-08-03T17:33:39;29.30;76.00
46766;DHT22;32527;51.986;5.842;2022-08-03T17:36:07;28.90;75.60
46766;DHT22;32527;51.986;5.842;2022-08-03T17:38:36;28.70;75.50
46766;DHT22;32527;51.986;5.842;2022-08-03T17:41:02;28.80;77.10
46766;DHT22;32527;51.986;5.842;2022-08-03T17:43:27;28.80;78.60
46766;DHT22;32527;51.986;5.842;2022-08-03T17:48:19;28.70;79.70
46766;DHT22;32527;51.986;5.842;2022-08-03T17:50:50;28.20;78.40
46766;DHT22;32527;51.986;5.842;2022-08-03T17:53:22;28.30;79.20
46766;DHT22;32527;51.986;5.842;2022-08-03T17:56:24;28.50;79.70
46766;DHT22;32527;51.986;5.842;2022-08-03T18:01:24;27.90;82.40
46766;DHT22;32527;51.986;5.842;2022-08-03T18:04:10;27.90;83.50
46766;DHT22;32527;51.986;5.842;2022-08-03T18:06:38;28.10;85.60
46766;DHT22;32527;51.986;5.842;2022-08-03T18:09:08;27.90;87.00
46766;DHT22;32527;51.986;5.842;2022-08-03T18:11:36;27.80;88.90
46766;DHT22;32527;51.986;5.842;2022-08-03T18:14:15;27.80;87.90
46766;DHT22;32527;51.986;5.842;2022-08-03T18:16:54;27.70;88.00
46766;DHT22;32527;51.986;5.842;2022-08-03T18:19:21;27.70;87.10
46766;DHT22;32527;51.986;5.842;2022-08-03T18:21:49;27.60;88.30
46766;DHT22;32527;51.986;5.842;2022-08-03T18:24:19;27.90;88.80
46766;DHT22;32527;51.986;5.842;2022-08-03T18:26:45;27.80;90.10
46766;DHT22;32527;51.986;5.842;2022-08-03T18:29:12;27.70;90.50
46766;DHT22;32527;51.986;5.842;2022-08-03T18:31:39;27.40;90.90
46766;DHT22;32527;51.986;5.842;2022-08-03T18:34:05;27.30;90.60
46766;DHT22;32527;51.986;5.842;2022-08-03T18:36:32;27.90;91.00
46766;DHT22;32527;51.986;5.842;2022-08-03T18:39:03;27.40;91.50
46766;DHT22;32527;51.986;5.842;2022-08-03T18:41:30;27.60;92.20
46766;DHT22;32527;51.986;5.842;2022-08-03T18:43:56;27.60;93.00
46766;DHT22;32527;51.986;5.842;2022-08-03T18:46:40;27.40;94.20
46766;DHT22;32527;51.986;5.842;2022-08-03T18:52:14;27.30;95.20
46766;DHT22;32527;51.986;5.842;2022-08-03T18:57:25;26.90;97.10
46766;DHT22;32527;51.986;5.842;2022-08-03T19:00:07;26.90;97.50
46766;DHT22;32527;51.986;5.842;2022-08-03T19:05:18;26.70;99.10
46766;DHT22;32527;51.986;5.842;2022-08-03T19:07:57;27.10;99.80
46766;DHT22;32527;51.986;5.842;2022-08-03T19:10:28;26.50;99.70
46766;DHT22;32527;51.986;5.842;2022-08-03T19:12:57;26.80;99.90
46766;DHT22;32527;51.986;5.842;2022-08-03T19:15:26;26.30;99.90
46766;DHT22;32527;51.986;5.842;2022-08-03T19:17:52;26.60;99.90
46766;DHT22;32527;51.986;5.842;2022-08-03T19:20:26;26.30;99.90
46766;DHT22;32527;51.986;5.842;2022-08-03T19:22:54;26.10;99.90
46766;DHT22;32527;51.986;5.842;2022-08-03T19:25:20;25.90;99.90
46766;DHT22;32527;51.986;5.842;2022-08-03T19:27:47;25.90;99.90
46766;DHT22;32527;51.986;5.842;2022-08-03T19:30:14;25.90;99.90
46766;DHT22;32527;51.986;5.842;2022-08-03T19:33:01;25.80;99.90
46766;DHT22;32527;51.986;5.842;2022-08-03T19:35:30;26.10;99.90
46766;DHT22;32527;51.986;5.842;2022-08-03T19:37:58;26.00;99.90